createdAt,value
2023-12-29T00:01:32.028Z,98793.27
2023-12-29T00:04:04.065Z,98792.04
2023-12-29T00:06:49.011Z,98790.54
2023-12-29T00:09:25.234Z,98784.22
2023-12-29T00:11:56.864Z,98783.96
2023-12-29T00:14:28.546Z,98778.85
2023-12-29T00:17:00.939Z,98776.73
2023-12-29T00:19:32.802Z,98781.83
2023-12-29T00:22:05.225Z,98776.11
2023-12-29T00:24:37.167Z,98773.88
2023-12-29T00:27:08.990Z,98771.02
2023-12-29T00:29:40.798Z,98766.62
2023-12-29T00:32:12.552Z,98764.00
2023-12-29T00:34:44.250Z,98757.95
2023-12-29T00:37:16.798Z,98756.27
2023-12-29T00:39:48.624Z,98754.47
2023-12-29T00:42:20.267Z,98753.52
2023-12-29T00:44:52.004Z,98748.88
2023-12-29T00:47:25.078Z,98749.73
2023-12-29T00:49:56.922Z,98750.25
2023-12-29T00:52:33.176Z,98750.09
2023-12-29T00:55:06.414Z,98748.73
2023-12-29T00:57:39.262Z,98746.91
2023-12-29T01:00:16.895Z,98746.26
2023-12-29T01:02:48.521Z,98745.14
2023-12-29T01:05:20.738Z,98745.91
2023-12-29T01:07:52.419Z,98744.96
2023-12-29T01:10:24.081Z,98738.66
2023-12-29T01:12:55.680Z,98734.96
2023-12-29T01:15:27.511Z,98727.10
2023-12-29T01:18:00.042Z,98718.21
2023-12-29T01:20:32.209Z,98721.20
2023-12-29T01:23:03.922Z,98711.48
2023-12-29T01:25:35.768Z,98713.38
2023-12-29T01:28:07.509Z,98709.54
2023-12-29T01:30:39.174Z,98697.86
2023-12-29T01:33:11.169Z,98699.80
2023-12-29T01:35:43.223Z,98697.52
2023-12-29T01:38:15.442Z,98687.70
2023-12-29T01:40:47.539Z,98675.02
2023-12-29T01:43:20.489Z,98671.52
2023-12-29T01:45:57.761Z,98668.41
2023-12-29T01:48:30.161Z,98664.13
2023-12-29T01:51:02.330Z,98661.49
2023-12-29T01:53:42.741Z,98660.98
2023-12-29T01:56:21.845Z,98658.77
2023-12-29T01:58:53.690Z,98660.56
2023-12-29T02:01:25.437Z,98650.58
2023-12-29T02:03:58.196Z,98650.70
2023-12-29T02:06:30.735Z,98649.77
2023-12-29T02:09:06.319Z,98636.10
2023-12-29T02:11:39.398Z,98632.17
2023-12-29T02:14:12.209Z,98631.59
2023-12-29T02:17:03.985Z,98631.70
2023-12-29T02:19:43.392Z,98617.30
2023-12-29T02:22:16.483Z,98624.20
2023-12-29T02:24:49.291Z,98626.77
2023-12-29T02:27:53.286Z,98627.30
2023-12-29T02:30:36.413Z,98628.60
2023-12-29T02:33:12.338Z,98619.69
2023-12-29T02:35:46.599Z,98615.88
2023-12-29T02:38:18.416Z,98608.33
2023-12-29T02:40:50.376Z,98597.05
2023-12-29T02:43:22.165Z,98590.80
2023-12-29T02:45:54.056Z,98591.52
2023-12-29T02:48:25.962Z,98584.77
2023-12-29T02:50:57.630Z,98587.11
2023-12-29T02:53:29.437Z,98584.67
2023-12-29T02:56:01.152Z,98586.16
2023-12-29T02:58:32.849Z,98582.49
2023-12-29T03:01:04.806Z,98586.34
2023-12-29T03:03:36.589Z,98587.23
2023-12-29T03:06:08.569Z,98593.58
2023-12-29T03:08:40.214Z,98592.45
2023-12-29T03:11:11.887Z,98591.58
2023-12-29T03:13:43.556Z,98581.52
2023-12-29T03:16:16.138Z,98574.30
2023-12-29T03:18:48.951Z,98575.70
2023-12-29T03:21:20.737Z,98579.77
2023-12-29T03:23:52.430Z,98573.27
2023-12-29T03:26:24.299Z,98572.17
2023-12-29T03:28:56.254Z,98567.70
2023-12-29T03:31:28.141Z,98563.27
2023-12-29T03:33:59.961Z,98559.36
2023-12-29T03:36:31.597Z,98555.92
2023-12-29T03:39:04.021Z,98555.38
2023-12-29T03:41:35.638Z,98553.95
2023-12-29T03:44:07.466Z,98556.08
2023-12-29T03:46:40.580Z,98545.64
2023-12-29T03:49:12.238Z,98546.56
2023-12-29T03:51:43.936Z,98545.73
2023-12-29T03:54:15.975Z,98544.98
2023-12-29T03:56:48.249Z,98539.75
2023-12-29T03:59:19.808Z,98533.27
2023-12-29T04:01:51.492Z,98528.62
2023-12-29T04:04:23.193Z,98526.62
2023-12-29T04:06:54.983Z,98519.48
2023-12-29T04:09:26.569Z,98521.81
2023-12-29T04:11:58.240Z,98513.54
2023-12-29T04:14:29.861Z,98521.37
2023-12-29T04:17:04.678Z,98517.13
2023-12-29T04:19:36.299Z,98512.94
2023-12-29T04:22:09.021Z,98503.09
2023-12-29T04:24:41.545Z,98491.87
2023-12-29T04:27:13.260Z,98489.06
2023-12-29T04:29:46.487Z,98483.98
2023-12-29T04:32:18.143Z,98481.69
2023-12-29T04:34:49.950Z,98468.05
2023-12-29T04:37:21.714Z,98461.52
2023-12-29T04:39:53.588Z,98461.31
2023-12-29T04:42:25.500Z,98459.92
2023-12-29T04:44:57.279Z,98460.33
2023-12-29T04:47:29.060Z,98448.05
2023-12-29T04:50:01.086Z,98446.88
2023-12-29T04:52:33.469Z,98451.55
2023-12-29T04:55:05.465Z,98454.70
2023-12-29T04:57:37.222Z,98448.37
2023-12-29T05:00:09.518Z,98448.45
2023-12-29T05:02:41.155Z,98441.13
2023-12-29T05:05:13.034Z,98445.69
2023-12-29T05:07:44.920Z,98442.06
2023-12-29T05:10:16.805Z,98437.50
2023-12-29T05:12:48.788Z,98436.30
2023-12-29T05:15:20.753Z,98444.80
2023-12-29T05:17:53.260Z,98443.55
2023-12-29T05:20:25.258Z,98439.09
2023-12-29T05:22:56.942Z,98440.14
2023-12-29T05:25:28.540Z,98429.30
2023-12-29T05:28:00.556Z,98426.67
2023-12-29T05:30:33.726Z,98417.16
2023-12-29T05:33:05.840Z,98405.94
2023-12-29T05:35:37.580Z,98419.54
2023-12-29T05:38:09.171Z,98420.23
2023-12-29T05:40:40.868Z,98419.40
2023-12-29T05:43:12.634Z,98423.05
2023-12-29T05:45:44.347Z,98423.84
2023-12-29T05:48:16.464Z,98426.86
2023-12-29T05:50:48.249Z,98421.52
2023-12-29T05:53:20.084Z,98419.80
2023-12-29T05:55:51.820Z,98417.11
2023-12-29T05:58:23.437Z,98414.42
2023-12-29T06:01:00.224Z,98410.64
2023-12-29T06:03:32.363Z,98413.05
2023-12-29T06:06:04.624Z,98409.79
2023-12-29T06:08:36.480Z,98402.65
2023-12-29T06:11:08.413Z,98399.09
2023-12-29T06:13:40.005Z,98404.31
2023-12-29T06:16:18.873Z,98391.05
2023-12-29T06:18:50.765Z,98395.29
2023-12-29T06:21:22.725Z,98397.17
2023-12-29T06:23:54.396Z,98391.60
2023-12-29T06:26:26.176Z,98383.98
2023-12-29T06:28:57.795Z,98380.98
2023-12-29T06:31:29.621Z,98390.29
2023-12-29T06:34:01.891Z,98384.50
2023-12-29T06:36:34.085Z,98386.79
2023-12-29T06:39:05.987Z,98384.63
2023-12-29T06:41:37.805Z,98379.70
2023-12-29T06:44:09.502Z,98374.43
2023-12-29T06:46:41.711Z,98375.27
2023-12-29T06:49:13.511Z,98372.27
2023-12-29T06:51:45.964Z,98378.67
2023-12-29T06:54:17.708Z,98374.17
2023-12-29T06:56:49.953Z,98377.06
2023-12-29T06:59:22.156Z,98380.78
2023-12-29T07:01:53.935Z,98377.12
2023-12-29T07:04:25.827Z,98380.25
2023-12-29T07:06:58.126Z,98379.05
2023-12-29T07:09:29.878Z,98373.83
2023-12-29T07:12:01.469Z,98387.54
2023-12-29T07:14:33.125Z,98381.92
2023-12-29T07:17:05.306Z,98382.36
2023-12-29T07:19:40.274Z,98383.64
2023-12-29T07:22:12.329Z,98382.67
2023-12-29T07:24:44.367Z,98380.65
2023-12-29T07:27:16.182Z,98383.30
2023-12-29T07:29:47.796Z,98377.25
2023-12-29T07:32:19.700Z,98376.52
2023-12-29T07:34:51.698Z,98373.31
2023-12-29T07:37:23.658Z,98369.84
2023-12-29T07:39:55.423Z,98365.84
2023-12-29T07:42:27.234Z,98369.61
2023-12-29T07:44:58.835Z,98374.15
2023-12-29T07:47:30.822Z,98372.08
2023-12-29T07:50:03.265Z,98366.13
2023-12-29T07:52:35.502Z,98368.13
2023-12-29T07:55:08.073Z,98378.88
2023-12-29T07:57:39.811Z,98378.36
2023-12-29T08:00:12.998Z,98380.58
2023-12-29T08:02:44.673Z,98367.95
2023-12-29T08:05:18.147Z,98374.43
2023-12-29T08:07:50.033Z,98363.23
2023-12-29T08:10:21.850Z,98356.22
2023-12-29T08:12:53.914Z,98352.69
2023-12-29T08:15:25.730Z,98350.51
2023-12-29T08:18:00.332Z,98347.02
2023-12-29T08:20:34.886Z,98350.45
2023-12-29T08:23:06.576Z,98357.89
2023-12-29T08:25:38.907Z,98354.16
2023-12-29T08:28:10.660Z,98362.67
2023-12-29T08:30:42.555Z,98354.74
2023-12-29T08:33:14.924Z,98356.02
2023-12-29T08:35:49.435Z,98355.45
2023-12-29T08:38:21.229Z,98352.26
2023-12-29T08:40:53.936Z,98345.14
2023-12-29T08:43:26.155Z,98345.30
2023-12-29T08:45:58.332Z,98343.03
2023-12-29T08:48:30.325Z,98352.67
2023-12-29T08:51:02.633Z,98345.30
2023-12-29T08:53:36.921Z,98344.28
2023-12-29T08:56:08.554Z,98344.86
2023-12-29T08:58:40.502Z,98344.61
2023-12-29T09:01:12.242Z,98356.48
2023-12-29T09:03:44.240Z,98355.02
2023-12-29T09:06:17.028Z,98358.22
2023-12-29T09:08:49.392Z,98354.12
2023-12-29T09:11:21.203Z,98356.69
2023-12-29T09:13:53.122Z,98359.80
2023-12-29T09:16:24.821Z,98365.15
2023-12-29T09:18:56.905Z,98371.73
2023-12-29T09:21:28.719Z,98372.50
2023-12-29T09:24:00.546Z,98376.16
2023-12-29T09:26:32.171Z,98377.35
2023-12-29T09:29:03.900Z,98380.13
2023-12-29T09:31:37.076Z,98381.27
2023-12-29T09:34:08.845Z,98385.39
2023-12-29T09:36:40.625Z,98392.75
2023-12-29T09:39:12.309Z,98394.73
2023-12-29T09:41:47.823Z,98402.48
2023-12-29T09:44:23.201Z,98405.47
2023-12-29T09:46:56.053Z,98403.60
2023-12-29T09:49:32.371Z,98408.87
2023-12-29T09:52:05.222Z,98410.11
2023-12-29T09:54:38.697Z,98411.77
2023-12-29T10:04:26.566Z,98405.52
2023-12-29T10:07:05.831Z,98395.82
2023-12-29T10:09:40.638Z,98378.16
2023-12-29T10:12:13.798Z,98362.06
2023-12-29T10:15:15.675Z,98333.30
2023-12-29T10:18:08.680Z,98314.69
2023-12-29T10:20:51.547Z,98311.23
2023-12-29T10:23:34.666Z,98332.71
2023-12-29T10:26:06.817Z,98350.07
2023-12-29T10:28:38.856Z,98347.73
2023-12-29T10:31:16.074Z,98344.28
2023-12-29T10:33:52.252Z,98335.83
2023-12-29T10:36:24.150Z,98331.37
2023-12-29T10:39:11.387Z,98325.02
2023-12-29T10:41:43.248Z,98319.15
2023-12-29T10:44:15.145Z,98316.27
2023-12-29T10:46:46.961Z,98306.92
2023-12-29T10:49:19.682Z,98313.41
2023-12-29T10:51:51.933Z,98318.80
2023-12-29T10:54:27.205Z,98319.88
2023-12-29T10:57:06.432Z,98319.83
2023-12-29T10:59:38.485Z,98327.61
2023-12-29T11:02:16.473Z,98325.61
2023-12-29T11:04:48.679Z,98322.94
2023-12-29T11:07:37.904Z,98320.08
2023-12-29T11:10:10.914Z,98318.77
2023-12-29T11:12:43.527Z,98322.28
2023-12-29T11:15:16.717Z,98323.20
2023-12-29T11:17:51.539Z,98319.06
2023-12-29T11:20:24.529Z,98318.52
2023-12-29T11:22:56.417Z,98321.16
2023-12-29T11:25:29.187Z,98318.15
2023-12-29T11:28:01.778Z,98325.77
2023-12-29T11:30:47.176Z,98321.38
2023-12-29T11:33:24.768Z,98331.86
2023-12-29T11:36:23.762Z,98334.34
2023-12-29T11:39:15.153Z,98333.93
2023-12-29T11:41:52.838Z,98330.78
2023-12-29T11:44:29.161Z,98333.81
2023-12-29T11:47:03.608Z,98336.55
2023-12-29T11:50:05.013Z,98338.23
2023-12-29T11:52:38.402Z,98340.04
2023-12-29T11:55:10.910Z,98338.27
2023-12-29T11:57:43.271Z,98331.79
2023-12-29T12:00:17.669Z,98332.92
2023-12-29T12:02:52.528Z,98335.55
2023-12-29T12:05:47.679Z,98334.48
2023-12-29T12:08:30.365Z,98330.50
2023-12-29T12:11:30.117Z,98335.21
2023-12-29T12:14:02.849Z,98339.98
2023-12-29T12:16:43.674Z,98344.66
2023-12-29T12:19:16.719Z,98349.33
2023-12-29T12:21:50.128Z,98354.91
2023-12-29T12:24:22.056Z,98352.83
2023-12-29T12:26:53.900Z,98353.36
2023-12-29T12:29:26.643Z,98355.25
2023-12-29T12:31:59.151Z,98354.73
2023-12-29T12:34:38.581Z,98357.59
2023-12-29T12:37:10.414Z,98354.58
2023-12-29T12:39:43.135Z,98360.25
2023-12-29T12:42:16.034Z,98359.45
2023-12-29T12:45:11.225Z,98349.41
2023-12-29T12:47:51.476Z,98358.68
2023-12-29T12:53:41.481Z,98362.35
2023-12-29T12:56:16.573Z,98359.25
2023-12-29T12:58:48.236Z,98361.35
2023-12-29T13:01:21.025Z,98356.88
2023-12-29T13:03:54.278Z,98356.06
2023-12-29T13:06:26.789Z,98362.19
2023-12-29T13:08:59.359Z,98360.49
2023-12-29T13:11:31.206Z,98369.39
2023-12-29T13:14:03.456Z,98372.04
2023-12-29T13:16:37.603Z,98370.84
2023-12-29T13:19:26.523Z,98372.01
2023-12-29T13:21:58.752Z,98368.00
2023-12-29T13:24:30.852Z,98370.27
2023-12-29T13:27:07.303Z,98372.82
2023-12-29T13:29:40.363Z,98382.20
2023-12-29T13:32:19.772Z,98381.11
2023-12-29T13:35:01.000Z,98388.13
2023-12-29T13:37:46.135Z,98393.42
2023-12-29T13:40:57.303Z,98397.61
2023-12-29T13:43:32.048Z,98382.13
2023-12-29T13:46:04.952Z,98380.40
2023-12-29T13:48:37.331Z,98385.52
2023-12-29T13:51:09.347Z,98388.70
2023-12-29T13:53:41.967Z,98385.36
2023-12-29T13:56:13.967Z,98397.91
2023-12-29T13:58:52.936Z,98397.12
2023-12-29T14:01:24.814Z,98398.67
2023-12-29T14:04:00.756Z,98391.73
2023-12-29T14:06:54.447Z,98397.15
2023-12-29T14:09:26.147Z,98399.12
2023-12-29T14:11:57.827Z,98401.90
2023-12-29T14:14:29.612Z,98399.02
2023-12-29T14:17:01.242Z,98390.04
2023-12-29T14:19:37.996Z,98388.64
2023-12-29T14:22:09.934Z,98389.58
2023-12-29T14:24:41.945Z,98391.13
2023-12-29T14:27:13.903Z,98397.34
2023-12-29T14:29:45.601Z,98403.36
2023-12-29T14:32:17.370Z,98410.44
2023-12-29T14:34:54.268Z,98407.42
2023-12-29T14:37:27.179Z,98405.85
2023-12-29T14:40:43.936Z,98395.78
2023-12-29T14:43:36.413Z,98389.83
2023-12-29T14:46:18.995Z,98388.35
2023-12-29T14:48:56.064Z,98385.52
2023-12-29T14:51:43.954Z,98375.33
2023-12-29T14:54:47.737Z,98371.27
2023-12-29T14:57:40.166Z,98374.75
2023-12-29T15:00:16.010Z,98385.23
2023-12-29T15:03:22.725Z,98387.08
2023-12-29T15:06:17.087Z,98383.16
2023-12-29T15:09:32.563Z,98387.34
2023-12-29T15:12:07.362Z,98382.13
2023-12-29T15:14:39.280Z,98382.19
2023-12-29T15:17:37.037Z,98375.18
2023-12-29T15:20:35.533Z,98376.33
2023-12-29T15:23:10.911Z,98373.17
2023-12-29T15:26:07.742Z,98370.27
2023-12-29T15:29:26.550Z,98378.89
2023-12-29T15:32:29.097Z,98380.18
2023-12-29T15:35:00.938Z,98374.99
2023-12-29T15:37:55.719Z,98371.15
2023-12-29T15:40:42.858Z,98364.99
2023-12-29T15:43:38.264Z,98368.77
2023-12-29T15:46:45.345Z,98365.40
2023-12-29T15:50:11.134Z,98361.64
2023-12-29T15:52:44.314Z,98352.40
2023-12-29T15:55:41.078Z,98350.34
2023-12-29T15:59:01.249Z,98350.36
2023-12-29T16:01:53.009Z,98346.70
2023-12-29T16:05:04.741Z,98350.36
2023-12-29T16:07:51.184Z,98345.27
2023-12-29T16:10:58.984Z,98345.42
2023-12-29T16:13:50.243Z,98344.63
2023-12-29T16:16:51.661Z,98339.28
2023-12-29T16:19:44.866Z,98333.73
2023-12-29T16:22:59.575Z,98331.23
2023-12-29T16:25:55.388Z,98330.52
2023-12-29T16:28:57.435Z,98325.82
2023-12-29T16:31:38.661Z,98327.46
2023-12-29T16:34:29.891Z,98330.55
2023-12-29T16:37:14.749Z,98327.20
2023-12-29T16:40:27.296Z,98318.77
2023-12-29T16:43:19.473Z,98331.64
2023-12-29T16:46:11.250Z,98336.67
2023-12-29T16:49:25.384Z,98334.15
2023-12-29T16:52:39.475Z,98335.77
2023-12-29T16:55:44.742Z,98328.35
2023-12-29T16:58:17.987Z,98335.01
2023-12-29T17:01:53.427Z,98348.15
2023-12-29T17:04:44.916Z,98346.64
2023-12-29T17:08:03.756Z,98346.79
2023-12-29T17:10:42.813Z,98343.03
2023-12-29T17:13:15.843Z,98334.98
2023-12-29T17:15:48.541Z,98336.41
2023-12-29T17:18:22.916Z,98338.80
2023-12-29T17:20:54.651Z,98339.91
2023-12-29T17:23:26.994Z,98341.68
2023-12-29T17:26:02.345Z,98344.92
2023-12-29T17:28:35.022Z,98338.30
2023-12-29T17:31:10.819Z,98334.14
2023-12-29T17:33:42.789Z,98327.83
2023-12-29T17:36:14.684Z,98322.86
2023-12-29T17:38:46.956Z,98320.36
2023-12-29T17:41:19.190Z,98318.52
2023-12-29T17:43:51.030Z,98320.00
2023-12-29T17:46:23.328Z,98314.77
2023-12-29T17:48:56.333Z,98321.46
2023-12-29T17:51:32.218Z,98326.08
2023-12-29T17:54:04.481Z,98319.70
2023-12-29T17:56:41.850Z,98319.53
2023-12-29T17:59:15.761Z,98316.86
2023-12-29T18:01:51.623Z,98301.99
2023-12-29T18:04:23.746Z,98306.59
2023-12-29T18:07:03.658Z,98306.23
2023-12-29T18:09:40.782Z,98305.88
2023-12-29T18:12:13.920Z,98304.42
2023-12-29T18:14:46.786Z,98318.76
2023-12-29T18:17:22.099Z,98321.09
2023-12-29T18:19:53.967Z,98322.59
2023-12-29T18:22:25.946Z,98331.27
2023-12-29T18:24:57.848Z,98334.13
2023-12-29T18:27:34.209Z,98332.66
2023-12-29T18:30:06.778Z,98333.80
2023-12-29T18:32:39.654Z,98337.34
2023-12-29T18:35:11.642Z,98334.46
2023-12-29T18:37:47.595Z,98336.25
2023-12-29T18:40:20.270Z,98334.58
2023-12-29T18:42:52.057Z,98340.98
2023-12-29T18:45:23.712Z,98342.13
2023-12-29T18:47:56.725Z,98347.13
2023-12-29T18:50:29.518Z,98349.86
2023-12-29T18:53:02.448Z,98341.75
2023-12-29T18:55:34.818Z,98331.17
2023-12-29T18:58:06.634Z,98328.79
2023-12-29T19:00:38.397Z,98340.85
2023-12-29T19:03:10.943Z,98332.07
2023-12-29T19:05:44.161Z,98340.11
2023-12-29T19:08:20.077Z,98344.73
2023-12-29T19:10:52.150Z,98350.73
2023-12-29T19:13:24.562Z,98351.08
2023-12-29T19:15:56.817Z,98353.67
2023-12-29T19:18:29.582Z,98357.51
2023-12-29T19:21:04.613Z,98359.17
2023-12-29T19:23:36.372Z,98356.89
2023-12-29T19:26:08.142Z,98351.82
2023-12-29T19:28:40.227Z,98359.67
2023-12-29T19:31:12.241Z,98347.73
2023-12-29T19:33:44.255Z,98349.19
2023-12-29T19:36:19.030Z,98350.56
2023-12-29T19:38:51.037Z,98353.83
2023-12-29T19:41:25.033Z,98345.13
2023-12-29T19:43:57.418Z,98357.63
2023-12-29T19:46:29.757Z,98358.53
2023-12-29T19:49:01.979Z,98359.75
2023-12-29T19:51:34.770Z,98358.25
2023-12-29T19:54:06.673Z,98352.45
2023-12-29T19:56:39.659Z,98352.15
2023-12-29T19:59:11.315Z,98361.92
2023-12-29T20:01:51.110Z,98375.40
2023-12-29T20:04:23.622Z,98370.90
2023-12-29T20:07:05.471Z,98375.39
2023-12-29T20:09:41.183Z,98373.02
2023-12-29T20:12:20.487Z,98369.20
2023-12-29T20:14:57.195Z,98363.12
2023-12-29T20:17:31.230Z,98357.88
2023-12-29T20:20:05.046Z,98359.41
2023-12-29T20:25:27.305Z,98376.13
2023-12-29T20:27:59.763Z,98377.12
2023-12-29T20:30:31.548Z,98379.52
2023-12-29T20:33:05.046Z,98375.17
2023-12-29T20:35:40.957Z,98376.63
2023-12-29T20:38:13.275Z,98381.46
2023-12-29T20:40:44.936Z,98378.53
2023-12-29T20:43:16.940Z,98372.90
2023-12-29T20:45:48.677Z,98375.79
2023-12-29T20:48:20.521Z,98379.53
2023-12-29T20:50:55.633Z,98380.84
2023-12-29T20:53:32.529Z,98382.97
2023-12-29T20:56:08.042Z,98382.48
2023-12-29T20:58:40.611Z,98386.29
2023-12-29T21:01:13.153Z,98387.13
2023-12-29T21:03:45.565Z,98385.74
2023-12-29T21:06:22.374Z,98380.77
2023-12-29T21:08:59.673Z,98377.66
2023-12-29T21:11:31.842Z,98375.83
2023-12-29T21:14:04.308Z,98377.19
2023-12-29T21:16:37.300Z,98377.40
2023-12-29T21:19:09.558Z,98378.05
2023-12-29T21:21:41.985Z,98365.20
2023-12-29T21:24:13.974Z,98364.18
2023-12-29T21:26:46.268Z,98357.32
2023-12-29T21:29:18.711Z,98354.48
2023-12-29T21:31:50.947Z,98351.98
2023-12-29T21:34:22.738Z,98344.99
2023-12-29T21:36:56.806Z,98338.08
2023-12-29T21:39:28.766Z,98331.00
2023-12-29T21:42:00.972Z,98327.79
2023-12-29T21:44:32.871Z,98337.95
2023-12-29T21:47:04.886Z,98336.02
2023-12-29T21:49:40.461Z,98337.23
2023-12-29T21:52:12.287Z,98339.58
2023-12-29T21:54:44.740Z,98345.45
2023-12-29T21:57:17.143Z,98344.28
2023-12-29T21:59:51.892Z,98348.10
2023-12-29T22:02:23.482Z,98339.20
2023-12-29T22:04:55.500Z,98330.66
2023-12-29T22:07:27.737Z,98343.72
2023-12-29T22:09:59.405Z,98357.39
2023-12-29T22:12:33.937Z,98354.41
2023-12-29T22:15:06.634Z,98345.86
2023-12-29T22:17:38.688Z,98344.95
2023-12-29T22:20:10.884Z,98341.56
2023-12-29T22:22:44.005Z,98336.34
2023-12-29T22:25:16.306Z,98331.16
2023-12-29T22:27:48.245Z,98323.98
2023-12-29T22:30:20.025Z,98333.90
2023-12-29T22:32:52.058Z,98332.20
2023-12-29T22:35:24.352Z,98338.98
2023-12-29T22:37:56.066Z,98341.09
2023-12-29T22:40:27.996Z,98341.41
2023-12-29T22:43:01.093Z,98339.30
2023-12-29T22:45:35.392Z,98337.64
2023-12-29T22:48:07.866Z,98334.52
2023-12-29T22:50:39.736Z,98329.34
2023-12-29T22:53:11.346Z,98317.91
2023-12-29T22:55:43.184Z,98332.08
2023-12-29T22:58:14.907Z,98334.17
2023-12-29T23:00:47.113Z,98340.93
2023-12-29T23:03:20.433Z,98336.88
